sensor_id;sensor_type;location;lat;lon;timestamp;P1;durP1;ratioP1;P2;durP2;ratioP2
53503;SDS011;39387;50.998;22.340;2023-03-01T00:00:10;40.65;;;16.52;;
53503;SDS011;39387;50.998;22.340;2023-03-01T00:02:59;39.58;;;15.82;;
53503;SDS011;39387;50.998;22.340;2023-03-01T00:05:27;40.50;;;16.35;;
53503;SDS011;39387;50.998;22.340;2023-03-01T00:07:54;43.85;;;16.25;;
53503;SDS011;39387;50.998;22.340;2023-03-01T00:10:23;38.60;;;14.98;;
53503;SDS011;39387;50.998;22.340;2023-03-01T00:12:52;44.63;;;16.50;;
53503;SDS011;39387;50.998;22.340;2023-03-01T00:15:20;54.45;;;18.48;;
53503;SDS011;39387;50.998;22.340;2023-03-01T00:17:48;47.03;;;17.58;;
53503;SDS011;39387;50.998;22.340;2023-03-01T00:20:15;35.20;;;15.80;;
53503;SDS011;39387;50.998;22.340;2023-03-01T00:22:43;50.78;;;17.90;;
53503;SDS011;39387;50.998;22.340;2023-03-01T00:25:11;38.70;;;16.48;;
53503;SDS011;39387;50.998;22.340;2023-03-01T00:27:40;43.22;;;16.55;;
53503;SDS011;39387;50.998;22.340;2023-03-01T00:30:08;39.13;;;14.15;;
53503;SDS011;39387;50.998;22.340;2023-03-01T00:32:36;40.95;;;17.08;;
53503;SDS011;39387;50.998;22.340;2023-03-01T00:35:03;40.70;;;16.02;;
53503;SDS011;39387;50.998;22.340;2023-03-01T00:37:31;46.67;;;17.42;;
53503;SDS011;39387;50.998;22.340;2023-03-01T00:39:59;43.15;;;16.83;;
53503;SDS011;39387;50.998;22.340;2023-03-01T00:42:26;36.28;;;14.77;;
53503;SDS011;39387;50.998;22.340;2023-03-01T00:44:55;42.25;;;16.17;;
53503;SDS011;39387;50.998;22.340;2023-03-01T00:47:23;43.35;;;16.88;;
53503;SDS011;39387;50.998;22.340;2023-03-01T00:49:50;45.38;;;17.05;;
53503;SDS011;39387;50.998;22.340;2023-03-01T00:52:18;61.92;;;21.77;;
53503;SDS011;39387;50.998;22.340;2023-03-01T00:54:45;58.28;;;20.75;;
53503;SDS011;39387;50.998;22.340;2023-03-01T00:57:13;51.33;;;21.00;;
53503;SDS011;39387;50.998;22.340;2023-03-01T00:59:40;48.42;;;18.73;;
53503;SDS011;39387;50.998;22.340;2023-03-01T01:02:09;49.53;;;20.00;;
53503;SDS011;39387;50.998;22.340;2023-03-01T01:04:37;40.88;;;17.50;;
53503;SDS011;39387;50.998;22.340;2023-03-01T01:07:05;54.33;;;22.45;;
53503;SDS011;39387;50.998;22.340;2023-03-01T01:09:32;52.78;;;20.20;;
53503;SDS011;39387;50.998;22.340;2023-03-01T01:12:00;48.30;;;18.95;;
53503;SDS011;39387;50.998;22.340;2023-03-01T01:14:27;50.22;;;19.90;;
53503;SDS011;39387;50.998;22.340;2023-03-01T01:16:55;61.58;;;23.88;;
53503;SDS011;39387;50.998;22.340;2023-03-01T01:19:25;49.97;;;20.63;;
53503;SDS011;39387;50.998;22.340;2023-03-01T01:21:53;51.65;;;22.77;;
53503;SDS011;39387;50.998;22.340;2023-03-01T01:24:20;46.05;;;19.83;;
53503;SDS011;39387;50.998;22.340;2023-03-01T01:26:48;59.42;;;21.33;;
53503;SDS011;39387;50.998;22.340;2023-03-01T01:29:15;56.50;;;23.50;;
53503;SDS011;39387;50.998;22.340;2023-03-01T01:31:43;58.42;;;23.50;;
53503;SDS011;39387;50.998;22.340;2023-03-01T01:34:13;52.80;;;23.35;;
53503;SDS011;39387;50.998;22.340;2023-03-01T01:36:43;56.30;;;22.02;;
53503;SDS011;39387;50.998;22.340;2023-03-01T01:39:13;54.90;;;19.73;;
53503;SDS011;39387;50.998;22.340;2023-03-01T01:41:41;54.00;;;21.20;;
53503;SDS011;39387;50.998;22.340;2023-03-01T01:44:13;67.32;;;23.75;;
53503;SDS011;39387;50.998;22.340;2023-03-01T01:46:43;56.85;;;21.83;;
53503;SDS011;39387;50.998;22.340;2023-03-01T01:49:16;64.47;;;24.35;;
53503;SDS011;39387;50.998;22.340;2023-03-01T01:51:48;59.58;;;23.83;;
53503;SDS011;39387;50.998;22.340;2023-03-01T01:54:18;61.67;;;22.65;;
53503;SDS011;39387;50.998;22.340;2023-03-01T01:56:49;69.25;;;26.48;;
53503;SDS011;39387;50.998;22.340;2023-03-01T01:59:19;70.93;;;26.23;;
53503;SDS011;39387;50.998;22.340;2023-03-01T02:01:50;70.53;;;28.73;;
53503;SDS011;39387;50.998;22.340;2023-03-01T02:04:18;61.15;;;23.30;;
53503;SDS011;39387;50.998;22.340;2023-03-01T02:06:48;62.88;;;25.08;;
53503;SDS011;39387;50.998;22.340;2023-03-01T02:09:18;65.00;;;26.50;;
53503;SDS011;39387;50.998;22.340;2023-03-01T02:11:48;63.60;;;25.75;;
53503;SDS011;39387;50.998;22.340;2023-03-01T02:14:16;54.78;;;24.30;;
53503;SDS011;39387;50.998;22.340;2023-03-01T02:16:43;66.60;;;26.67;;
53503;SDS011;39387;50.998;22.340;2023-03-01T02:19:13;72.95;;;28.13;;
53503;SDS011;39387;50.998;22.340;2023-03-01T02:21:52;67.85;;;24.77;;
53503;SDS011;39387;50.998;22.340;2023-03-01T02:24:25;67.88;;;27.17;;
53503;SDS011;39387;50.998;22.340;2023-03-01T02:26:57;67.45;;;25.48;;
53503;SDS011;39387;50.998;22.340;2023-03-01T02:29:26;54.63;;;21.70;;
53503;SDS011;39387;50.998;22.340;2023-03-01T02:31:55;69.75;;;26.73;;
53503;SDS011;39387;50.998;22.340;2023-03-01T02:34:24;63.60;;;25.60;;
53503;SDS011;39387;50.998;22.340;2023-03-01T02:36:53;57.72;;;23.65;;
53503;SDS011;39387;50.998;22.340;2023-03-01T02:39:22;58.33;;;24.00;;
53503;SDS011;39387;50.998;22.340;2023-03-01T02:41:54;63.80;;;24.52;;
53503;SDS011;39387;50.998;22.340;2023-03-01T02:44:23;61.72;;;25.42;;
53503;SDS011;39387;50.998;22.340;2023-03-01T02:46:52;56.60;;;22.80;;
53503;SDS011;39387;50.998;22.340;2023-03-01T02:49:22;60.90;;;23.85;;
53503;SDS011;39387;50.998;22.340;2023-03-01T02:51:58;55.03;;;21.67;;
53503;SDS011;39387;50.998;22.340;2023-03-01T02:54:33;60.42;;;23.05;;
53503;SDS011;39387;50.998;22.340;2023-03-01T02:57:05;53.60;;;21.80;;
53503;SDS011;39387;50.998;22.340;2023-03-01T02:59:33;52.03;;;20.58;;
53503;SDS011;39387;50.998;22.340;2023-03-01T03:02:06;51.72;;;21.60;;
53503;SDS011;39387;50.998;22.340;2023-03-01T03:04:33;50.55;;;18.70;;
53503;SDS011;39387;50.998;22.340;2023-03-01T03:07:01;58.08;;;21.33;;
53503;SDS011;39387;50.998;22.340;2023-03-01T03:09:29;53.67;;;21.20;;
53503;SDS011;39387;50.998;22.340;2023-03-01T03:11:56;45.33;;;18.73;;
53503;SDS011;39387;50.998;22.340;2023-03-01T03:14:24;56.40;;;22.50;;
53503;SDS011;39387;50.998;22.340;2023-03-01T03:16:51;57.38;;;21.15;;
53503;SDS011;39387;50.998;22.340;2023-03-01T03:19:20;55.75;;;21.67;;
53503;SDS011;39387;50.998;22.340;2023-03-01T03:21:48;61.75;;;22.88;;
53503;SDS011;39387;50.998;22.340;2023-03-01T03:24:15;54.58;;;24.48;;
53503;SDS011;39387;50.998;22.340;2023-03-01T03:26:44;64.22;;;23.33;;
53503;SDS011;39387;50.998;22.340;2023-03-01T03:29:11;62.75;;;24.80;;
53503;SDS011;39387;50.998;22.340;2023-03-01T03:31:39;58.25;;;22.30;;
53503;SDS011;39387;50.998;22.340;2023-03-01T03:34:06;48.22;;;20.13;;
53503;SDS011;39387;50.998;22.340;2023-03-01T03:36:35;53.15;;;20.92;;
53503;SDS011;39387;50.998;22.340;2023-03-01T03:39:02;56.28;;;21.35;;
53503;SDS011;39387;50.998;22.340;2023-03-01T03:41:31;54.50;;;21.13;;
53503;SDS011;39387;50.998;22.340;2023-03-01T03:44:01;58.92;;;23.23;;
53503;SDS011;39387;50.998;22.340;2023-03-01T03:46:29;63.22;;;22.67;;
53503;SDS011;39387;50.998;22.340;2023-03-01T03:48:56;53.22;;;19.77;;
53503;SDS011;39387;50.998;22.340;2023-03-01T03:51:24;50.65;;;19.35;;
53503;SDS011;39387;50.998;22.340;2023-03-01T03:53:52;49.25;;;19.55;;
53503;SDS011;39387;50.998;22.340;2023-03-01T03:56:20;50.15;;;19.83;;
53503;SDS011;39387;50.998;22.340;2023-03-01T04:01:18;39.95;;;16.35;;
53503;SDS011;39387;50.998;22.340;2023-03-01T04:03:46;33.13;;;15.30;;
53503;SDS011;39387;50.998;22.340;2023-03-01T04:06:13;46.80;;;19.60;;
53503;SDS011;39387;50.998;22.340;2023-03-01T04:08:41;44.97;;;17.85;;
53503;SDS011;39387;50.998;22.340;2023-03-01T04:11:10;38.47;;;15.82;;
53503;SDS011;39387;50.998;22.340;2023-03-01T04:13:54;44.08;;;16.88;;
53503;SDS011;39387;50.998;22.340;2023-03-01T04:16:23;45.20;;;16.33;;
53503;SDS011;39387;50.998;22.340;2023-03-01T04:18:51;40.67;;;16.42;;
53503;SDS011;39387;50.998;22.340;2023-03-01T04:21:20;38.03;;;16.23;;
53503;SDS011;39387;50.998;22.340;2023-03-01T04:23:48;37.17;;;15.45;;
53503;SDS011;39387;50.998;22.340;2023-03-01T04:26:19;44.38;;;18.85;;
53503;SDS011;39387;50.998;22.340;2023-03-01T04:28:47;36.22;;;15.98;;
53503;SDS011;39387;50.998;22.340;2023-03-01T04:31:18;52.33;;;17.42;;
53503;SDS011;39387;50.998;22.340;2023-03-01T04:33:47;32.97;;;14.60;;
53503;SDS011;39387;50.998;22.340;2023-03-01T04:36:17;45.72;;;15.30;;
53503;SDS011;39387;50.998;22.340;2023-03-01T04:38:46;37.92;;;15.63;;
53503;SDS011;39387;50.998;22.340;2023-03-01T04:41:15;29.55;;;13.15;;
53503;SDS011;39387;50.998;22.340;2023-03-01T04:43:44;42.08;;;17.05;;
53503;SDS011;39387;50.998;22.340;2023-03-01T04:46:14;35.50;;;14.82;;
53503;SDS011;39387;50.998;22.340;2023-03-01T04:48:42;39.47;;;15.65;;
53503;SDS011;39387;50.998;22.340;2023-03-01T04:51:10;45.42;;;16.33;;
53503;SDS011;39387;50.998;22.340;2023-03-01T04:53:40;36.83;;;15.02;;
53503;SDS011;39387;50.998;22.340;2023-03-01T04:56:08;46.83;;;17.45;;
53503;SDS011;39387;50.998;22.340;2023-03-01T04:58:36;34.65;;;15.60;;
53503;SDS011;39387;50.998;22.340;2023-03-01T05:01:09;34.60;;;14.77;;
53503;SDS011;39387;50.998;22.340;2023-03-01T05:03:41;37.22;;;14.45;;
53503;SDS011;39387;50.998;22.340;2023-03-01T05:06:09;46.67;;;17.92;;
53503;SDS011;39387;50.998;22.340;2023-03-01T05:08:37;34.05;;;14.55;;
53503;SDS011;39387;50.998;22.340;2023-03-01T05:11:05;42.20;;;16.83;;
53503;SDS011;39387;50.998;22.340;2023-03-01T05:13:34;36.35;;;14.15;;
53503;SDS011;39387;50.998;22.340;2023-03-01T05:16:02;36.88;;;15.32;;
53503;SDS011;39387;50.998;22.340;2023-03-01T05:18:33;37.35;;;14.10;;
53503;SDS011;39387;50.998;22.340;2023-03-01T05:21:02;39.22;;;16.33;;
53503;SDS011;39387;50.998;22.340;2023-03-01T05:23:31;36.33;;;14.88;;
53503;SDS011;39387;50.998;22.340;2023-03-01T05:25:59;41.88;;;14.43;;
53503;SDS011;39387;50.998;22.340;2023-03-01T05:28:27;34.75;;;15.77;;
53503;SDS011;39387;50.998;22.340;2023-03-01T05:30:55;46.30;;;17.40;;
53503;SDS011;39387;50.998;22.340;2023-03-01T05:33:23;31.73;;;15.23;;
53503;SDS011;39387;50.998;22.340;2023-03-01T05:35:52;41.42;;;14.63;;
53503;SDS011;39387;50.998;22.340;2023-03-01T05:38:20;35.15;;;14.20;;
53503;SDS011;39387;50.998;22.340;2023-03-01T05:40:48;46.28;;;19.00;;
53503;SDS011;39387;50.998;22.340;2023-03-01T05:43:16;39.72;;;15.52;;
53503;SDS011;39387;50.998;22.340;2023-03-01T05:45:44;37.85;;;16.70;;
53503;SDS011;39387;50.998;22.340;2023-03-01T05:48:12;34.22;;;14.65;;
53503;SDS011;39387;50.998;22.340;2023-03-01T05:50:41;36.20;;;14.50;;
53503;SDS011;39387;50.998;22.340;2023-03-01T05:53:11;41.30;;;16.25;;
53503;SDS011;39387;50.998;22.340;2023-03-01T05:55:40;32.65;;;13.70;;
53503;SDS011;39387;50.998;22.340;2023-03-01T05:58:09;38.05;;;14.93;;
53503;SDS011;39387;50.998;22.340;2023-03-01T06:00:39;36.85;;;13.73;;
53503;SDS011;39387;50.998;22.340;2023-03-01T06:03:09;35.00;;;15.27;;
53503;SDS011;39387;50.998;22.340;2023-03-01T06:05:37;32.63;;;14.63;;
53503;SDS011;39387;50.998;22.340;2023-03-01T06:08:05;47.92;;;19.10;;
53503;SDS011;39387;50.998;22.340;2023-03-01T06:10:34;37.28;;;14.88;;
53503;SDS011;39387;50.998;22.340;2023-03-01T06:13:02;44.58;;;18.13;;
53503;SDS011;39387;50.998;22.340;2023-03-01T06:15:29;38.13;;;17.40;;
53503;SDS011;39387;50.998;22.340;2023-03-01T06:17:57;42.17;;;17.23;;
53503;SDS011;39387;50.998;22.340;2023-03-01T06:20:25;44.47;;;18.58;;
53503;SDS011;39387;50.998;22.340;2023-03-01T06:22:53;46.53;;;19.80;;
53503;SDS011;39387;50.998;22.340;2023-03-01T06:25:21;47.45;;;18.20;;
53503;SDS011;39387;50.998;22.340;2023-03-01T06:27:51;41.90;;;19.02;;
53503;SDS011;39387;50.998;22.340;2023-03-01T06:30:19;46.42;;;18.67;;
53503;SDS011;39387;50.998;22.340;2023-03-01T06:32:48;42.05;;;17.80;;
53503;SDS011;39387;50.998;22.340;2023-03-01T06:35:16;43.80;;;18.23;;
53503;SDS011;39387;50.998;22.340;2023-03-01T06:37:45;41.95;;;17.63;;
53503;SDS011;39387;50.998;22.340;2023-03-01T06:40:14;47.00;;;17.92;;
53503;SDS011;39387;50.998;22.340;2023-03-01T06:42:42;41.78;;;18.45;;
53503;SDS011;39387;50.998;22.340;2023-03-01T06:45:16;40.20;;;19.33;;
53503;SDS011;39387;50.998;22.340;2023-03-01T06:47:44;41.17;;;18.95;;
53503;SDS011;39387;50.998;22.340;2023-03-01T06:50:12;43.50;;;18.58;;
53503;SDS011;39387;50.998;22.340;2023-03-01T06:52:40;41.90;;;17.52;;
53503;SDS011;39387;50.998;22.340;2023-03-01T06:55:09;40.50;;;18.05;;
53503;SDS011;39387;50.998;22.340;2023-03-01T06:57:37;41.10;;;19.13;;
53503;SDS011;39387;50.998;22.340;2023-03-01T07:00:04;45.45;;;19.45;;
53503;SDS011;39387;50.998;22.340;2023-03-01T07:02:35;45.50;;;20.02;;
53503;SDS011;39387;50.998;22.340;2023-03-01T07:05:02;43.20;;;19.17;;
53503;SDS011;39387;50.998;22.340;2023-03-01T07:07:30;42.97;;;18.98;;
53503;SDS011;39387;50.998;22.340;2023-03-01T07:09:57;41.50;;;18.63;;
53503;SDS011;39387;50.998;22.340;2023-03-01T07:12:25;42.63;;;17.65;;
53503;SDS011;39387;50.998;22.340;2023-03-01T07:14:52;41.58;;;16.88;;
53503;SDS011;39387;50.998;22.340;2023-03-01T07:17:20;41.72;;;17.08;;
53503;SDS011;39387;50.998;22.340;2023-03-01T07:19:49;34.55;;;16.25;;
53503;SDS011;39387;50.998;22.340;2023-03-01T07:22:16;36.72;;;16.40;;
53503;SDS011;39387;50.998;22.340;2023-03-01T07:24:43;42.80;;;17.08;;
53503;SDS011;39387;50.998;22.340;2023-03-01T07:27:11;34.20;;;14.90;;
53503;SDS011;39387;50.998;22.340;2023-03-01T07:29:39;38.13;;;17.73;;
53503;SDS011;39387;50.998;22.340;2023-03-01T07:32:06;39.75;;;17.38;;
53503;SDS011;39387;50.998;22.340;2023-03-01T07:34:34;36.03;;;15.70;;
53503;SDS011;39387;50.998;22.340;2023-03-01T07:37:03;38.25;;;15.48;;
53503;SDS011;39387;50.998;22.340;2023-03-01T07:39:30;37.92;;;16.80;;
53503;SDS011;39387;50.998;22.340;2023-03-01T07:41:58;40.38;;;16.65;;
53503;SDS011;39387;50.998;22.340;2023-03-01T07:44:25;44.95;;;18.83;;
53503;SDS011;39387;50.998;22.340;2023-03-01T07:46:54;38.33;;;17.85;;
53503;SDS011;39387;50.998;22.340;2023-03-01T07:49:23;38.38;;;18.05;;
53503;SDS011;39387;50.998;22.340;2023-03-01T07:51:52;44.70;;;19.42;;
53503;SDS011;39387;50.998;22.340;2023-03-01T07:54:20;37.42;;;16.95;;
53503;SDS011;39387;50.998;22.340;2023-03-01T07:56:48;42.63;;;17.85;;
53503;SDS011;39387;50.998;22.340;2023-03-01T07:59:15;41.97;;;17.98;;
53503;SDS011;39387;50.998;22.340;2023-03-01T08:01:43;41.40;;;17.58;;
53503;SDS011;39387;50.998;22.340;2023-03-01T08:04:10;44.15;;;18.08;;
53503;SDS011;39387;50.998;22.340;2023-03-01T08:06:38;37.85;;;18.08;;
53503;SDS011;39387;50.998;22.340;2023-03-01T08:09:05;46.35;;;19.13;;
53503;SDS011;39387;50.998;22.340;2023-03-01T08:11:35;40.83;;;17.65;;
53503;SDS011;39387;50.998;22.340;2023-03-01T08:14:03;44.65;;;18.00;;
53503;SDS011;39387;50.998;22.340;2023-03-01T08:16:30;38.50;;;17.27;;
53503;SDS011;39387;50.998;22.340;2023-03-01T08:19:02;41.10;;;17.65;;
53503;SDS011;39387;50.998;22.340;2023-03-01T08:21:31;38.50;;;17.65;;
53503;SDS011;39387;50.998;22.340;2023-03-01T08:24:00;41.83;;;17.35;;
53503;SDS011;39387;50.998;22.340;2023-03-01T08:26:28;37.22;;;17.67;;
53503;SDS011;39387;50.998;22.340;2023-03-01T08:28:57;34.92;;;16.63;;
53503;SDS011;39387;50.998;22.340;2023-03-01T08:31:25;38.72;;;17.92;;
53503;SDS011;39387;50.998;22.340;2023-03-01T08:33:54;38.50;;;16.20;;
53503;SDS011;39387;50.998;22.340;2023-03-01T08:36:23;37.38;;;16.33;;
53503;SDS011;39387;50.998;22.340;2023-03-01T08:38:51;40.63;;;17.13;;
53503;SDS011;39387;50.998;22.340;2023-03-01T08:41:19;40.63;;;18.45;;
53503;SDS011;39387;50.998;22.340;2023-03-01T08:43:46;35.25;;;17.77;;
53503;SDS011;39387;50.998;22.340;2023-03-01T08:46:15;35.95;;;17.02;;
53503;SDS011;39387;50.998;22.340;2023-03-01T08:48:43;35.47;;;16.83;;
53503;SDS011;39387;50.998;22.340;2023-03-01T08:51:11;34.40;;;16.27;;
53503;SDS011;39387;50.998;22.340;2023-03-01T08:53:40;30.58;;;15.30;;
53503;SDS011;39387;50.998;22.340;2023-03-01T08:56:08;32.10;;;14.82;;
53503;SDS011;39387;50.998;22.340;2023-03-01T08:58:36;41.47;;;19.75;;
53503;SDS011;39387;50.998;22.340;2023-03-01T09:01:06;44.47;;;19.05;;
53503;SDS011;39387;50.998;22.340;2023-03-01T09:03:35;29.80;;;14.10;;
53503;SDS011;39387;50.998;22.340;2023-03-01T09:06:04;26.65;;;12.75;;
53503;SDS011;39387;50.998;22.340;2023-03-01T09:08:33;29.30;;;13.95;;
53503;SDS011;39387;50.998;22.340;2023-03-01T09:11:01;28.00;;;13.18;;
53503;SDS011;39387;50.998;22.340;2023-03-01T09:13:29;32.42;;;13.30;;
53503;SDS011;39387;50.998;22.340;2023-03-01T09:15:58;28.45;;;12.35;;
53503;SDS011;39387;50.998;22.340;2023-03-01T09:18:25;25.20;;;13.20;;
53503;SDS011;39387;50.998;22.340;2023-03-01T09:20:55;31.75;;;13.15;;
53503;SDS011;39387;50.998;22.340;2023-03-01T09:23:27;27.92;;;12.55;;
53503;SDS011;39387;50.998;22.340;2023-03-01T09:25:55;26.73;;;13.05;;
53503;SDS011;39387;50.998;22.340;2023-03-01T09:28:22;23.48;;;11.38;;
53503;SDS011;39387;50.998;22.340;2023-03-01T09:30:50;27.20;;;12.15;;
53503;SDS011;39387;50.998;22.340;2023-03-01T09:33:18;25.77;;;12.88;;
53503;SDS011;39387;50.998;22.340;2023-03-01T09:35:45;28.23;;;12.18;;
53503;SDS011;39387;50.998;22.340;2023-03-01T09:38:14;25.20;;;12.90;;
53503;SDS011;39387;50.998;22.340;2023-03-01T09:40:42;26.27;;;13.70;;
53503;SDS011;39387;50.998;22.340;2023-03-01T09:43:15;27.42;;;13.40;;
53503;SDS011;39387;50.998;22.340;2023-03-01T09:45:47;23.70;;;11.63;;
53503;SDS011;39387;50.998;22.340;2023-03-01T09:48:16;25.98;;;12.45;;
53503;SDS011;39387;50.998;22.340;2023-03-01T09:50:45;25.00;;;12.57;;
53503;SDS011;39387;50.998;22.340;2023-03-01T09:53:13;26.83;;;12.10;;
53503;SDS011;39387;50.998;22.340;2023-03-01T09:55:45;25.98;;;12.13;;
53503;SDS011;39387;50.998;22.340;2023-03-01T09:58:27;28.98;;;12.90;;
53503;SDS011;39387;50.998;22.340;2023-03-01T10:01:02;26.63;;;12.32;;
53503;SDS011;39387;50.998;22.340;2023-03-01T10:03:36;23.08;;;11.60;;
53503;SDS011;39387;50.998;22.340;2023-03-01T10:06:08;22.55;;;11.00;;
53503;SDS011;39387;50.998;22.340;2023-03-01T10:08:40;23.00;;;11.57;;
53503;SDS011;39387;50.998;22.340;2023-03-01T10:11:20;22.42;;;10.68;;
53503;SDS011;39387;50.998;22.340;2023-03-01T10:13:50;23.45;;;11.60;;
53503;SDS011;39387;50.998;22.340;2023-03-01T10:16:24;21.38;;;10.07;;
53503;SDS011;39387;50.998;22.340;2023-03-01T10:18:55;19.40;;;10.15;;
53503;SDS011;39387;50.998;22.340;2023-03-01T10:21:26;20.63;;;11.02;;
53503;SDS011;39387;50.998;22.340;2023-03-01T10:23:56;18.63;;;10.25;;
53503;SDS011;39387;50.998;22.340;2023-03-01T10:29:23;23.90;;;11.73;;
53503;SDS011;39387;50.998;22.340;2023-03-01T10:31:53;23.30;;;11.73;;
53503;SDS011;39387;50.998;22.340;2023-03-01T10:34:27;36.40;;;15.55;;
53503;SDS011;39387;50.998;22.340;2023-03-01T10:36:57;27.98;;;13.45;;
53503;SDS011;39387;50.998;22.340;2023-03-01T10:39:33;25.00;;;11.23;;
53503;SDS011;39387;50.998;22.340;2023-03-01T10:42:01;28.08;;;12.10;;
53503;SDS011;39387;50.998;22.340;2023-03-01T10:44:37;27.70;;;12.10;;
53503;SDS011;39387;50.998;22.340;2023-03-01T10:47:14;33.72;;;13.48;;
53503;SDS011;39387;50.998;22.340;2023-03-01T10:49:53;32.60;;;13.63;;
53503;SDS011;39387;50.998;22.340;2023-03-01T10:52:23;30.83;;;12.98;;
53503;SDS011;39387;50.998;22.340;2023-03-01T10:54:55;17.30;;;9.05;;
53503;SDS011;39387;50.998;22.340;2023-03-01T10:57:30;18.55;;;8.98;;
53503;SDS011;39387;50.998;22.340;2023-03-01T11:02:49;20.05;;;9.40;;
53503;SDS011;39387;50.998;22.340;2023-03-01T11:05:21;16.00;;;7.90;;
53503;SDS011;39387;50.998;22.340;2023-03-01T11:07:54;19.20;;;9.30;;
53503;SDS011;39387;50.998;22.340;2023-03-01T11:10:25;20.33;;;10.93;;
53503;SDS011;39387;50.998;22.340;2023-03-01T11:12:54;20.27;;;9.85;;
53503;SDS011;39387;50.998;22.340;2023-03-01T11:15:33;18.75;;;10.13;;
53503;SDS011;39387;50.998;22.340;2023-03-01T11:18:01;22.45;;;10.70;;
53503;SDS011;39387;50.998;22.340;2023-03-01T11:20:29;20.90;;;10.68;;
53503;SDS011;39387;50.998;22.340;2023-03-01T11:22:59;18.23;;;9.70;;
53503;SDS011;39387;50.998;22.340;2023-03-01T11:25:32;16.15;;;8.18;;
53503;SDS011;39387;50.998;22.340;2023-03-01T11:28:01;15.60;;;8.63;;
53503;SDS011;39387;50.998;22.340;2023-03-01T11:30:32;17.38;;;8.18;;
53503;SDS011;39387;50.998;22.340;2023-03-01T11:33:05;19.73;;;8.68;;
53503;SDS011;39387;50.998;22.340;2023-03-01T11:35:41;16.85;;;7.95;;
53503;SDS011;39387;50.998;22.340;2023-03-01T11:40:45;11.70;;;6.22;;
53503;SDS011;39387;50.998;22.340;2023-03-01T11:43:19;16.30;;;7.85;;
53503;SDS011;39387;50.998;22.340;2023-03-01T11:45:57;15.52;;;7.25;;
53503;SDS011;39387;50.998;22.340;2023-03-01T11:48:48;13.95;;;7.00;;
53503;SDS011;39387;50.998;22.340;2023-03-01T11:51:23;13.65;;;7.20;;
53503;SDS011;39387;50.998;22.340;2023-03-01T11:54:06;15.10;;;6.60;;
53503;SDS011;39387;50.998;22.340;2023-03-01T11:56:43;11.98;;;6.82;;
53503;SDS011;39387;50.998;22.340;2023-03-01T11:59:20;15.02;;;7.43;;
53503;SDS011;39387;50.998;22.340;2023-03-01T12:01:58;13.40;;;7.28;;
53503;SDS011;39387;50.998;22.340;2023-03-01T12:07:37;12.18;;;6.32;;
53503;SDS011;39387;50.998;22.340;2023-03-01T12:10:15;13.20;;;6.65;;
53503;SDS011;39387;50.998;22.340;2023-03-01T12:13:02;11.75;;;7.00;;
53503;SDS011;39387;50.998;22.340;2023-03-01T12:15:42;12.98;;;6.10;;
53503;SDS011;39387;50.998;22.340;2023-03-01T12:18:36;13.68;;;7.05;;
53503;SDS011;39387;50.998;22.340;2023-03-01T12:21:24;13.93;;;6.47;;
53503;SDS011;39387;50.998;22.340;2023-03-01T12:26:44;12.98;;;6.65;;
53503;SDS011;39387;50.998;22.340;2023-03-01T12:32:00;12.07;;;6.25;;
53503;SDS011;39387;50.998;22.340;2023-03-01T12:37:52;9.95;;;6.07;;
53503;SDS011;39387;50.998;22.340;2023-03-01T12:40:31;10.93;;;6.00;;
53503;SDS011;39387;50.998;22.340;2023-03-01T12:43:07;11.07;;;6.65;;
53503;SDS011;39387;50.998;22.340;2023-03-01T12:45:57;11.70;;;5.93;;
53503;SDS011;39387;50.998;22.340;2023-03-01T12:48:45;10.27;;;5.40;;
53503;SDS011;39387;50.998;22.340;2023-03-01T12:51:18;12.52;;;6.25;;
53503;SDS011;39387;50.998;22.340;2023-03-01T12:53:51;12.70;;;6.63;;
53503;SDS011;39387;50.998;22.340;2023-03-01T12:56:20;14.15;;;7.10;;
53503;SDS011;39387;50.998;22.340;2023-03-01T12:58:51;13.60;;;6.83;;
53503;SDS011;39387;50.998;22.340;2023-03-01T13:01:29;15.25;;;6.70;;
53503;SDS011;39387;50.998;22.340;2023-03-01T13:04:12;13.35;;;6.72;;
53503;SDS011;39387;50.998;22.340;2023-03-01T13:06:49;11.63;;;6.22;;
53503;SDS011;39387;50.998;22.340;2023-03-01T13:09:23;14.23;;;7.00;;
53503;SDS011;39387;50.998;22.340;2023-03-01T13:11:55;11.35;;;5.75;;
53503;SDS011;39387;50.998;22.340;2023-03-01T13:20:12;17.75;;;6.63;;
53503;SDS011;39387;50.998;22.340;2023-03-01T13:22:41;12.95;;;6.85;;
53503;SDS011;39387;50.998;22.340;2023-03-01T13:25:13;12.50;;;6.45;;
53503;SDS011;39387;50.998;22.340;2023-03-01T13:27:43;12.80;;;6.78;;
53503;SDS011;39387;50.998;22.340;2023-03-01T13:36:06;11.88;;;6.32;;
53503;SDS011;39387;50.998;22.340;2023-03-01T13:38:38;11.43;;;6.50;;
53503;SDS011;39387;50.998;22.340;2023-03-01T13:41:11;13.43;;;7.18;;
53503;SDS011;39387;50.998;22.340;2023-03-01T13:43:40;11.10;;;6.72;;
53503;SDS011;39387;50.998;22.340;2023-03-01T13:46:09;11.95;;;6.25;;
53503;SDS011;39387;50.998;22.340;2023-03-01T13:48:40;13.93;;;6.68;;
53503;SDS011;39387;50.998;22.340;2023-03-01T13:51:10;12.68;;;6.43;;
53503;SDS011;39387;50.998;22.340;2023-03-01T13:53:40;13.75;;;6.07;;
53503;SDS011;39387;50.998;22.340;2023-03-01T13:56:12;11.30;;;5.65;;
53503;SDS011;39387;50.998;22.340;2023-03-01T13:58:46;12.85;;;6.25;;
53503;SDS011;39387;50.998;22.340;2023-03-01T14:01:23;15.40;;;6.65;;
53503;SDS011;39387;50.998;22.340;2023-03-01T14:03:53;13.43;;;6.57;;
53503;SDS011;39387;50.998;22.340;2023-03-01T14:06:23;11.10;;;6.35;;
53503;SDS011;39387;50.998;22.340;2023-03-01T14:08:59;10.32;;;6.13;;
53503;SDS011;39387;50.998;22.340;2023-03-01T14:14:29;12.27;;;5.85;;
53503;SDS011;39387;50.998;22.340;2023-03-01T14:17:05;11.60;;;5.72;;
53503;SDS011;39387;50.998;22.340;2023-03-01T14:19:47;11.27;;;5.45;;
53503;SDS011;39387;50.998;22.340;2023-03-01T14:22:17;9.13;;;4.78;;
53503;SDS011;39387;50.998;22.340;2023-03-01T14:24:49;10.25;;;5.30;;
53503;SDS011;39387;50.998;22.340;2023-03-01T14:27:18;8.93;;;4.63;;
53503;SDS011;39387;50.998;22.340;2023-03-01T14:29:53;10.05;;;4.88;;
53503;SDS011;39387;50.998;22.340;2023-03-01T14:32:24;13.13;;;6.05;;
53503;SDS011;39387;50.998;22.340;2023-03-01T14:34:54;10.13;;;5.90;;
53503;SDS011;39387;50.998;22.340;2023-03-01T14:37:23;13.25;;;5.40;;
53503;SDS011;39387;50.998;22.340;2023-03-01T14:39:52;9.57;;;5.60;;
53503;SDS011;39387;50.998;22.340;2023-03-01T14:42:21;11.10;;;5.22;;
53503;SDS011;39387;50.998;22.340;2023-03-01T14:44:50;8.85;;;5.43;;
53503;SDS011;39387;50.998;22.340;2023-03-01T14:47:21;11.32;;;5.07;;
53503;SDS011;39387;50.998;22.340;2023-03-01T14:49:56;10.50;;;5.55;;
53503;SDS011;39387;50.998;22.340;2023-03-01T14:52:27;10.68;;;4.72;;
53503;SDS011;39387;50.998;22.340;2023-03-01T14:55:00;8.98;;;4.90;;
53503;SDS011;39387;50.998;22.340;2023-03-01T14:57:30;9.13;;;4.95;;
53503;SDS011;39387;50.998;22.340;2023-03-01T14:59:58;8.80;;;4.03;;
53503;SDS011;39387;50.998;22.340;2023-03-01T15:02:31;11.82;;;5.70;;
53503;SDS011;39387;50.998;22.340;2023-03-01T15:05:01;9.68;;;4.82;;